aviador You're here:

RKSI Decoded Metar

CHAJANG NI in KOREA
Report Time2017-09-24 01:00:00
UTC Time2017-09-24 01:26:59
Flight Rules ifr IFR
Wind140° at 04 kt
W.Decomp.*RWY 16: 3.9 kt HW 0.8 kt LCW
RWY 15: 4.0 kt HW 0.1 kt LCW
W.Rank140° ranks 17
Current wind is below 140° avg. (6.3)
Visibility3500 m
Phenomena:Mist
Clouds:Few 010 Hf
Scattered 030 Hf
Expected CloudBase > 2,000 ft AGL from Temp-Dew spread
CeilingNone
Temp24°C (ISA +9)
Dew Point19°C (74% RH)
QNH1016 hPa
Density Alt1,263 ft
Elevation23 ft
Report Wrong Elevation
Raw Report
METAR RKSI 240100Z 14004KT 090V170 3500 BR FEW010 SCT030 24/19 Q1016
NOSIG=

Extra information for RKSI:More info

Metar Taf Metar & Taf Last 4 Metars F.Rules Stats Wind Profile Meteogram Temp Stats Airport Information Weather charts Add Link Nearby VenuesMetar ALERT Operation Metar Decoded Social comments